createdAt,value
2023-05-24T00:01:38.539Z,3.60
2023-05-24T00:04:06.698Z,3.63
2023-05-24T00:06:36.501Z,3.60
2023-05-24T00:09:06.339Z,3.47
2023-05-24T00:11:34.816Z,3.22
2023-05-24T00:14:03.100Z,3.80
2023-05-24T00:16:31.360Z,4.00
2023-05-24T00:18:59.387Z,3.78
2023-05-24T00:21:27.557Z,3.60
2023-05-24T00:23:55.895Z,3.50
2023-05-24T00:26:26.218Z,3.80
2023-05-24T00:28:56.330Z,3.20
2023-05-24T00:31:24.533Z,3.70
2023-05-24T00:33:52.637Z,4.05
2023-05-24T00:36:23.621Z,3.80
2023-05-24T00:38:54.067Z,3.97
2023-05-24T00:41:22.316Z,3.70
2023-05-24T00:43:52.544Z,4.00
2023-05-24T00:46:23.329Z,3.80
2023-05-24T00:48:52.585Z,4.20
2023-05-24T00:51:20.847Z,3.90
2023-05-24T00:53:50.550Z,3.80
2023-05-24T00:56:21.039Z,3.83
2023-05-24T00:58:50.607Z,3.55
2023-05-24T01:01:20.311Z,3.90
2023-05-24T01:03:48.814Z,4.15
2023-05-24T01:06:18.872Z,4.32
2023-05-24T01:09:03.223Z,3.80
2023-05-24T01:11:42.207Z,4.00
2023-05-24T01:14:21.378Z,4.07
2023-05-24T01:17:03.223Z,4.60
2023-05-24T01:19:51.309Z,3.57
2023-05-24T01:22:41.164Z,4.50
2023-05-24T01:25:30.114Z,4.28
2023-05-24T01:28:04.629Z,3.78
2023-05-24T01:30:34.219Z,4.18
2023-05-24T01:33:04.094Z,4.50
2023-05-24T01:35:32.260Z,4.75
2023-05-24T01:38:00.472Z,4.90
2023-05-24T01:40:28.780Z,4.30
2023-05-24T01:43:05.744Z,4.25
2023-05-24T01:45:41.102Z,4.60
2023-05-24T01:48:19.395Z,4.00
2023-05-24T01:50:51.289Z,4.38
2023-05-24T01:53:22.084Z,4.05
2023-05-24T01:55:55.217Z,4.30
2023-05-24T01:58:27.209Z,4.72
2023-05-24T02:00:56.159Z,5.13
2023-05-24T02:03:24.653Z,4.40
2023-05-24T02:05:53.074Z,4.00
2023-05-24T02:08:21.354Z,4.55
2023-05-24T02:10:50.704Z,4.43
2023-05-24T02:13:20.085Z,4.72
2023-05-24T02:15:50.069Z,4.65
2023-05-24T02:18:19.113Z,4.50
2023-05-24T02:20:47.406Z,5.07
2023-05-24T02:23:15.569Z,4.97
2023-05-24T02:25:43.622Z,5.07
2023-05-24T02:28:11.742Z,4.93
2023-05-24T02:30:40.043Z,5.03
2023-05-24T02:33:09.899Z,4.53
2023-05-24T02:35:38.474Z,4.53
2023-05-24T02:38:06.969Z,4.32
2023-05-24T02:40:37.520Z,5.00
2023-05-24T02:43:05.636Z,4.03
2023-05-24T02:45:33.898Z,4.80
2023-05-24T02:48:02.091Z,4.60
2023-05-24T02:50:31.854Z,4.25
2023-05-24T02:52:59.914Z,4.80
2023-05-24T02:55:29.216Z,4.15
2023-05-24T02:57:57.144Z,4.30
2023-05-24T03:00:25.247Z,4.32
2023-05-24T03:02:53.170Z,4.43
2023-05-24T03:05:21.152Z,4.25
2023-05-24T03:07:55.009Z,4.45
2023-05-24T03:10:23.436Z,4.25
2023-05-24T03:12:52.228Z,4.32
2023-05-24T03:15:21.378Z,4.00
2023-05-24T03:17:50.264Z,5.10
2023-05-24T03:20:21.343Z,5.13
2023-05-24T03:22:51.429Z,4.85
2023-05-24T03:25:20.403Z,4.90
2023-05-24T03:27:48.693Z,4.80
2023-05-24T03:30:20.282Z,4.93
2023-05-24T03:32:48.421Z,4.70
2023-05-24T03:35:18.928Z,5.50
2023-05-24T03:37:47.536Z,5.22
2023-05-24T03:40:34.809Z,5.70
2023-05-24T03:43:04.634Z,5.53
2023-05-24T03:45:39.130Z,5.50
2023-05-24T03:48:08.711Z,5.07
2023-05-24T03:50:39.346Z,5.10
2023-05-24T03:53:07.604Z,4.90
2023-05-24T03:55:39.376Z,5.43
2023-05-24T03:58:07.877Z,5.30
2023-05-24T04:00:38.160Z,5.57
2023-05-24T04:03:07.624Z,5.55
2023-05-24T04:05:37.628Z,5.65
2023-05-24T04:08:05.738Z,4.90
2023-05-24T04:10:34.477Z,5.50
2023-05-24T04:13:04.777Z,5.47
2023-05-24T04:15:34.860Z,5.30
2023-05-24T04:18:03.412Z,4.90
2023-05-24T04:20:32.311Z,4.97
2023-05-24T04:23:01.037Z,5.50
2023-05-24T04:25:29.676Z,5.32
2023-05-24T04:27:57.888Z,5.50
2023-05-24T04:30:29.889Z,6.13
2023-05-24T04:32:58.478Z,5.97
2023-05-24T04:35:28.204Z,6.32
2023-05-24T04:37:56.623Z,5.63
2023-05-24T04:40:25.204Z,5.97
2023-05-24T04:42:55.584Z,6.38
2023-05-24T04:45:24.036Z,7.15
2023-05-24T04:47:53.810Z,8.05
2023-05-24T04:50:21.971Z,8.13
2023-05-24T04:52:50.239Z,7.05
2023-05-24T04:55:18.506Z,7.78
2023-05-24T04:57:46.766Z,7.22
2023-05-24T05:00:15.752Z,7.10
2023-05-24T05:02:44.072Z,7.35
2023-05-24T05:05:14.985Z,8.55
2023-05-24T05:07:45.165Z,8.30
2023-05-24T05:10:14.032Z,7.60
2023-05-24T05:12:42.794Z,7.13
2023-05-24T05:15:13.574Z,7.90
2023-05-24T05:17:43.240Z,7.40
2023-05-24T05:20:12.922Z,7.10
2023-05-24T05:22:47.211Z,6.70
2023-05-24T05:25:16.765Z,6.45
2023-05-24T05:27:45.289Z,6.22
2023-05-24T05:30:14.145Z,6.93
2023-05-24T05:32:42.455Z,7.13
2023-05-24T05:35:11.047Z,6.78
2023-05-24T05:37:39.128Z,7.50
2023-05-24T05:40:10.693Z,6.68
2023-05-24T05:42:38.688Z,7.28
2023-05-24T05:45:08.031Z,7.00
2023-05-24T05:47:36.870Z,6.85
2023-05-24T05:50:05.354Z,7.50
2023-05-24T05:52:33.589Z,6.78
2023-05-24T05:55:01.809Z,7.28
2023-05-24T05:57:31.459Z,7.00
2023-05-24T05:59:59.528Z,6.85
2023-05-24T06:02:27.549Z,5.95
2023-05-24T06:04:55.659Z,7.18
2023-05-24T06:07:23.787Z,6.57
2023-05-24T06:09:51.854Z,7.07
2023-05-24T06:12:20.004Z,6.85
2023-05-24T06:14:50.869Z,7.13
2023-05-24T06:17:19.114Z,6.75
2023-05-24T06:19:46.992Z,6.93
2023-05-24T06:22:14.952Z,6.53
2023-05-24T06:24:43.867Z,6.15
2023-05-24T06:27:22.697Z,6.82
2023-05-24T06:29:52.536Z,6.50
2023-05-24T06:32:21.218Z,7.38
2023-05-24T06:34:53.647Z,6.60
2023-05-24T06:37:26.396Z,6.93
2023-05-24T06:39:54.597Z,7.10
2023-05-24T06:42:22.862Z,6.40
2023-05-24T06:44:52.733Z,6.63
2023-05-24T06:47:20.956Z,6.18
2023-05-24T06:49:50.290Z,6.30
2023-05-24T06:52:18.652Z,6.82
2023-05-24T06:54:46.850Z,6.28
2023-05-24T06:57:15.546Z,6.65
2023-05-24T06:59:43.868Z,5.75
2023-05-24T07:02:14.016Z,5.88
2023-05-24T07:04:42.604Z,5.40
2023-05-24T07:10:02.964Z,4.53
2023-05-24T07:12:32.748Z,6.55
2023-05-24T07:15:00.860Z,6.53
2023-05-24T07:17:31.167Z,6.40
2023-05-24T07:19:59.610Z,5.18
2023-05-24T07:22:29.503Z,4.78
2023-05-24T07:24:57.883Z,4.78
2023-05-24T07:27:26.289Z,4.95
2023-05-24T07:29:54.806Z,4.47
2023-05-24T07:32:23.411Z,4.55
2023-05-24T07:34:54.800Z,4.60
2023-05-24T07:37:24.470Z,5.07
2023-05-24T07:39:54.181Z,5.13
2023-05-24T07:42:22.810Z,5.15
2023-05-24T07:44:51.130Z,5.03
2023-05-24T07:47:19.703Z,4.95
2023-05-24T07:49:48.033Z,5.85
2023-05-24T07:52:20.476Z,5.22
2023-05-24T07:57:27.353Z,5.28
2023-05-24T07:59:55.537Z,5.30
2023-05-24T08:02:26.110Z,5.10
2023-05-24T08:04:54.490Z,4.40
2023-05-24T08:07:24.419Z,4.80
2023-05-24T08:09:52.915Z,4.43
2023-05-24T08:12:22.810Z,5.00
2023-05-24T08:14:50.682Z,4.60
2023-05-24T08:17:18.652Z,4.80
2023-05-24T08:19:46.808Z,4.45
2023-05-24T08:22:14.916Z,4.88
2023-05-24T08:24:45.948Z,4.40
2023-05-24T08:27:14.196Z,5.15
2023-05-24T08:29:42.299Z,4.78
2023-05-24T08:32:10.969Z,4.70
2023-05-24T08:34:39.259Z,4.55
2023-05-24T08:37:07.241Z,4.18
2023-05-24T08:39:40.634Z,4.45
2023-05-24T08:42:11.127Z,4.00
2023-05-24T08:44:43.831Z,4.45
2023-05-24T08:47:13.970Z,4.53
2023-05-24T08:49:47.749Z,5.20
2023-05-24T08:52:15.970Z,4.97
2023-05-24T08:54:44.901Z,4.60
2023-05-24T08:57:15.252Z,4.38
2023-05-24T08:59:44.197Z,4.22
2023-05-24T09:02:15.125Z,4.40
2023-05-24T09:04:45.023Z,4.32
2023-05-24T09:07:15.282Z,4.90
2023-05-24T09:09:45.566Z,4.85
2023-05-24T09:12:35.430Z,5.25
2023-05-24T09:15:08.524Z,5.28
2023-05-24T09:17:41.869Z,4.43
2023-05-24T09:20:12.016Z,4.60
2023-05-24T09:22:44.232Z,4.60
2023-05-24T09:25:15.551Z,4.70
2023-05-24T09:27:50.483Z,4.32
2023-05-24T09:30:19.970Z,4.53
2023-05-24T09:32:59.466Z,4.10
2023-05-24T09:35:28.402Z,4.57
2023-05-24T09:38:00.260Z,4.10
2023-05-24T09:40:32.564Z,4.72
2023-05-24T09:49:55.142Z,4.55
2023-05-24T09:52:52.884Z,4.57
2023-05-24T09:55:42.512Z,4.88
2023-05-24T09:58:18.767Z,4.70
2023-05-24T10:00:47.520Z,4.55
2023-05-24T10:03:18.392Z,4.30
2023-05-24T10:05:48.880Z,4.15
2023-05-24T10:08:19.762Z,4.40
2023-05-24T10:10:50.474Z,4.18
2023-05-24T10:13:26.026Z,4.05
2023-05-24T10:15:57.180Z,4.38
2023-05-24T10:18:27.097Z,4.63
2023-05-24T10:20:57.437Z,3.55
2023-05-24T10:23:28.703Z,4.13
2023-05-24T10:26:06.842Z,3.90
2023-05-24T10:28:42.530Z,4.03
2023-05-24T10:31:22.649Z,4.05
2023-05-24T10:34:06.534Z,4.20
2023-05-24T10:36:51.896Z,3.85
2023-05-24T10:39:30.941Z,3.58
2023-05-24T10:42:03.457Z,3.60
2023-05-24T10:44:39.846Z,4.05
2023-05-24T10:47:16.184Z,3.63
2023-05-24T10:49:51.784Z,3.90
2023-05-24T10:52:35.088Z,4.28
2023-05-24T10:55:11.328Z,3.80
2023-05-24T10:57:42.010Z,4.07
2023-05-24T11:00:41.555Z,3.75
2023-05-24T11:03:20.024Z,3.97
2023-05-24T11:05:55.306Z,4.35
2023-05-24T11:08:26.422Z,4.15
2023-05-24T11:11:25.637Z,3.95
2023-05-24T11:13:58.966Z,3.55
2023-05-24T11:16:42.829Z,4.10
2023-05-24T11:19:25.260Z,4.30
2023-05-24T11:21:58.922Z,4.85
2023-05-24T11:27:33.800Z,4.38
2023-05-24T11:30:06.265Z,5.82
2023-05-24T11:35:11.952Z,4.68
2023-05-24T11:37:46.606Z,5.97
2023-05-24T11:40:16.764Z,4.60
2023-05-24T11:42:51.792Z,4.55
2023-05-24T11:45:24.134Z,3.97
2023-05-24T11:50:53.891Z,4.57
2023-05-24T11:53:32.965Z,4.30
2023-05-24T11:56:02.001Z,4.88
2023-05-24T11:58:53.174Z,4.35
2023-05-24T12:01:40.945Z,4.30
2023-05-24T12:04:18.872Z,4.53
2023-05-24T12:07:16.125Z,5.38
2023-05-24T12:10:31.382Z,4.80
2023-05-24T12:13:34.702Z,4.80
2023-05-24T12:16:14.842Z,3.92
2023-05-24T12:19:05.255Z,4.70
2023-05-24T12:22:55.196Z,6.55
2023-05-24T12:25:55.021Z,4.85
2023-05-24T12:28:41.345Z,4.40
2023-05-24T12:31:29.612Z,4.25
2023-05-24T12:34:07.873Z,4.35
2023-05-24T12:36:46.804Z,4.43
2023-05-24T12:42:31.359Z,4.32
2023-05-24T12:45:44.525Z,4.38
2023-05-24T12:48:29.462Z,4.72
2023-05-24T12:54:20.401Z,4.38
2023-05-24T12:56:49.751Z,4.80
2023-05-24T12:59:19.264Z,4.45
2023-05-24T13:02:27.555Z,4.20
2023-05-24T13:05:01.815Z,4.43
2023-05-24T13:07:33.072Z,4.45
2023-05-24T13:10:01.714Z,4.05
2023-05-24T13:12:29.877Z,4.20
2023-05-24T13:14:59.502Z,4.55
2023-05-24T13:17:29.458Z,4.75
2023-05-24T13:20:00.788Z,4.63
2023-05-24T13:22:29.144Z,4.55
2023-05-24T13:24:57.404Z,4.60
2023-05-24T13:30:12.599Z,4.70
2023-05-24T13:32:41.281Z,4.55
2023-05-24T13:35:12.199Z,4.60
2023-05-24T13:37:41.131Z,4.38
2023-05-24T13:40:27.065Z,4.38
2023-05-24T13:42:58.158Z,4.35
2023-05-24T13:45:30.347Z,4.30
2023-05-24T13:48:04.015Z,4.78
2023-05-24T13:50:32.678Z,3.92
2023-05-24T13:53:03.598Z,4.15
2023-05-24T13:55:34.166Z,4.03
2023-05-24T13:58:04.944Z,4.13
2023-05-24T14:00:36.194Z,4.20
2023-05-24T14:03:06.079Z,4.13
2023-05-24T14:05:34.514Z,4.80
2023-05-24T14:08:07.100Z,4.53
2023-05-24T14:10:41.904Z,4.18
2023-05-24T14:13:36.771Z,4.40
2023-05-24T14:16:06.625Z,4.32
2023-05-24T14:18:44.061Z,4.50
2023-05-24T14:21:15.474Z,4.40
2023-05-24T14:23:43.608Z,4.47
2023-05-24T14:26:17.124Z,4.53
2023-05-24T14:28:45.466Z,3.80
2023-05-24T14:31:19.422Z,4.15
2023-05-24T14:33:49.538Z,4.68
2023-05-24T14:36:18.029Z,4.10
2023-05-24T14:38:46.893Z,4.28
2023-05-24T14:41:19.347Z,4.72
2023-05-24T14:43:50.823Z,4.82
2023-05-24T14:46:21.568Z,4.90
2023-05-24T14:48:54.327Z,4.47
2023-05-24T14:51:29.724Z,4.70
2023-05-24T14:53:58.113Z,4.53
2023-05-24T14:56:28.128Z,4.45
2023-05-24T14:58:56.521Z,4.57
2023-05-24T15:01:29.038Z,4.60
2023-05-24T15:04:06.567Z,4.43
2023-05-24T15:06:48.321Z,4.38
2023-05-24T15:09:20.134Z,3.60
2023-05-24T15:11:48.444Z,4.00
2023-05-24T15:14:18.893Z,4.88
2023-05-24T15:16:51.189Z,4.47
2023-05-24T15:22:04.641Z,4.10
2023-05-24T15:24:46.941Z,4.15
2023-05-24T15:27:16.755Z,4.35
2023-05-24T15:29:54.579Z,4.65
2023-05-24T15:32:25.125Z,4.38
2023-05-24T15:34:53.341Z,4.63
2023-05-24T15:37:54.648Z,4.70
2023-05-24T15:43:54.455Z,4.15
2023-05-24T15:46:22.851Z,4.78
2023-05-24T15:49:11.111Z,4.63
2023-05-24T15:52:03.137Z,4.78
2023-05-24T15:54:53.511Z,4.40
2023-05-24T15:57:30.184Z,5.03
2023-05-24T15:59:58.641Z,4.15
2023-05-24T16:02:46.889Z,4.53
2023-05-24T16:05:22.650Z,4.68
2023-05-24T16:07:56.676Z,4.28
2023-05-24T16:10:56.051Z,4.25
2023-05-24T16:13:30.272Z,4.13
2023-05-24T16:17:01.053Z,4.00
2023-05-24T16:22:56.535Z,3.78
2023-05-24T16:25:25.795Z,4.50
2023-05-24T16:29:00.987Z,4.30
2023-05-24T16:32:11.233Z,4.60
2023-05-24T16:34:55.402Z,4.55
2023-05-24T16:37:38.887Z,4.25
2023-05-24T16:40:18.315Z,4.28
2023-05-24T16:43:07.027Z,4.25
2023-05-24T16:46:08.475Z,4.30
2023-05-24T16:49:00.638Z,4.28
2023-05-24T16:51:49.668Z,4.25
2023-05-24T16:54:32.648Z,4.28
2023-05-24T16:57:08.387Z,4.50
2023-05-24T16:59:44.037Z,3.80
2023-05-24T17:02:22.057Z,3.85
2023-05-24T17:04:56.471Z,4.13
2023-05-24T17:08:16.334Z,4.43
2023-05-24T17:11:15.849Z,3.90
2023-05-24T17:13:59.190Z,4.13
2023-05-24T17:16:57.447Z,4.70
2023-05-24T17:19:50.957Z,4.70
2023-05-24T17:22:57.524Z,3.95
2023-05-24T17:26:56.870Z,4.13
2023-05-24T17:29:54.900Z,4.60
2023-05-24T17:32:53.661Z,4.50
2023-05-24T17:35:33.709Z,3.90
2023-05-24T17:38:40.781Z,4.50
2023-05-24T17:41:45.233Z,4.28
2023-05-24T17:44:14.782Z,4.25
2023-05-24T17:46:43.919Z,3.72
2023-05-24T17:49:12.754Z,4.05
2023-05-24T17:51:48.291Z,4.18
2023-05-24T17:54:22.837Z,4.43
2023-05-24T17:56:51.646Z,4.72
2023-05-24T17:59:21.955Z,4.50
2023-05-24T18:02:14.831Z,3.80
2023-05-24T18:04:46.025Z,3.92
2023-05-24T18:07:17.171Z,4.18
2023-05-24T18:10:14.997Z,4.78
2023-05-24T18:20:56.639Z,3.90
2023-05-24T18:23:25.115Z,3.80
2023-05-24T18:26:00.378Z,4.18
2023-05-24T18:32:14.432Z,4.60
2023-05-24T18:34:47.856Z,3.78
2023-05-24T18:38:00.170Z,3.83
2023-05-24T18:47:05.277Z,3.88
2023-05-24T18:49:34.674Z,4.15
2023-05-24T18:55:56.120Z,4.20
2023-05-24T20:56:53.062Z,4.30
2023-05-24T20:59:39.048Z,4.20
2023-05-24T21:02:40.544Z,4.70
2023-05-24T22:21:24.061Z,5.10
